createdAt,value
2019-02-17T00:02:28.352Z,7.20
2019-02-17T00:04:59.967Z,9.20
2019-02-17T00:07:31.864Z,8.00
2019-02-17T00:10:03.556Z,8.40
2019-02-17T00:12:35.297Z,9.13
2019-02-17T00:15:11.279Z,10.17
2019-02-17T00:17:43.105Z,10.77
2019-02-17T00:20:14.731Z,10.97
2019-02-17T00:22:47.579Z,10.17
2019-02-17T00:25:20.457Z,10.50
2019-02-17T00:27:52.374Z,11.60
2019-02-17T00:30:24.184Z,10.67
2019-02-17T00:32:56.613Z,10.50
2019-02-17T00:35:29.934Z,10.60
2019-02-17T00:38:01.605Z,8.73
2019-02-17T00:40:33.298Z,8.90
2019-02-17T00:43:05.055Z,9.87
2019-02-17T00:45:36.661Z,9.30
2019-02-17T00:48:08.501Z,9.23
2019-02-17T00:50:40.342Z,9.10
2019-02-17T00:53:13.811Z,9.20
2019-02-17T00:55:49.598Z,9.77
2019-02-17T00:58:33.259Z,8.60
2019-02-17T01:01:09.256Z,8.97
2019-02-17T01:03:41.227Z,7.60
2019-02-17T01:06:13.625Z,8.73
2019-02-17T01:08:45.403Z,8.97
2019-02-17T01:11:17.086Z,8.40
2019-02-17T01:13:48.978Z,9.53
2019-02-17T01:16:20.870Z,9.50
2019-02-17T01:18:52.624Z,11.40
2019-02-17T01:21:24.262Z,10.17
2019-02-17T01:23:56.155Z,9.30
2019-02-17T01:26:27.796Z,9.70
2019-02-17T01:28:59.400Z,9.77
2019-02-17T01:31:32.196Z,9.07
2019-02-17T01:34:11.550Z,9.93
2019-02-17T01:36:43.534Z,9.60
2019-02-17T01:39:15.930Z,9.53
2019-02-17T01:41:47.856Z,8.00
2019-02-17T01:44:19.520Z,7.80
2019-02-17T01:46:51.124Z,8.83
2019-02-17T01:49:22.843Z,8.90
2019-02-17T01:51:54.438Z,7.77
2019-02-17T01:54:26.169Z,8.83
2019-02-17T01:56:57.875Z,7.40
2019-02-17T01:59:30.821Z,8.30
2019-02-17T02:02:03.041Z,7.73
2019-02-17T02:04:34.735Z,8.47
2019-02-17T02:07:09.270Z,9.20
2019-02-17T02:09:41.786Z,10.33
2019-02-17T02:12:13.433Z,9.17
2019-02-17T02:14:45.080Z,8.50
2019-02-17T02:17:17.287Z,10.00
2019-02-17T02:19:49.461Z,9.50
2019-02-17T02:22:21.338Z,9.17
2019-02-17T02:24:53.337Z,9.00
2019-02-17T02:27:26.848Z,9.17
2019-02-17T02:30:00.358Z,8.80
2019-02-17T02:32:32.243Z,8.93
2019-02-17T02:35:04.165Z,11.80
2019-02-17T02:37:35.943Z,10.70
2019-02-17T02:40:08.043Z,8.90
2019-02-17T02:42:40.042Z,8.40
2019-02-17T02:45:12.170Z,9.20
2019-02-17T02:47:43.957Z,8.43
2019-02-17T02:50:15.568Z,9.10
2019-02-17T02:52:47.267Z,9.10
2019-02-17T02:55:18.884Z,9.33
2019-02-17T02:57:50.611Z,8.93
2019-02-17T03:00:22.201Z,8.60
2019-02-17T03:02:53.820Z,9.77
2019-02-17T03:05:25.649Z,9.00
2019-02-17T03:07:58.019Z,9.47
2019-02-17T03:10:29.674Z,8.40
2019-02-17T03:13:01.405Z,8.47
2019-02-17T03:15:33.247Z,9.80
2019-02-17T03:18:04.882Z,9.27
2019-02-17T03:20:36.570Z,10.10
2019-02-17T03:23:08.203Z,10.17
2019-02-17T03:25:40.002Z,10.60
2019-02-17T03:28:13.028Z,10.40
2019-02-17T03:30:44.650Z,9.40
2019-02-17T03:33:16.375Z,10.40
2019-02-17T03:35:48.035Z,11.90
2019-02-17T03:38:19.663Z,10.97
2019-02-17T03:40:51.358Z,10.10
2019-02-17T03:43:23.227Z,10.50
2019-02-17T03:45:55.124Z,10.17
2019-02-17T03:48:26.717Z,10.10
2019-02-17T03:50:58.343Z,10.90
2019-02-17T03:53:29.963Z,10.83
2019-02-17T03:56:01.563Z,13.50
2019-02-17T03:58:33.363Z,13.17
2019-02-17T04:01:04.974Z,11.67
2019-02-17T04:03:36.630Z,10.97
2019-02-17T04:06:08.259Z,11.33
2019-02-17T04:08:39.913Z,9.37
2019-02-17T04:11:11.663Z,10.80
2019-02-17T04:13:43.467Z,10.00
2019-02-17T04:16:15.648Z,10.40
2019-02-17T04:18:47.405Z,10.73
2019-02-17T04:21:20.331Z,11.93
2019-02-17T04:23:51.932Z,11.80
2019-02-17T04:26:23.543Z,10.47
2019-02-17T04:28:55.144Z,10.70
2019-02-17T04:31:26.958Z,10.03
2019-02-17T04:33:58.618Z,10.73
2019-02-17T04:36:31.262Z,10.73
2019-02-17T04:39:04.014Z,11.10
2019-02-17T04:41:35.640Z,9.77
2019-02-17T04:44:08.835Z,11.20
2019-02-17T04:46:40.860Z,10.70
2019-02-17T04:49:12.483Z,10.67
2019-02-17T04:51:44.099Z,10.63
2019-02-17T04:54:15.748Z,10.30
2019-02-17T04:56:47.419Z,11.00
2019-02-17T04:59:19.069Z,9.90
2019-02-17T05:01:50.816Z,10.20
2019-02-17T05:04:22.443Z,12.00
2019-02-17T05:06:54.119Z,10.70
2019-02-17T05:09:26.015Z,10.97
2019-02-17T05:11:57.874Z,12.07
2019-02-17T05:14:29.537Z,11.70
2019-02-17T05:17:02.327Z,10.63
2019-02-17T05:19:33.915Z,10.07
2019-02-17T05:22:05.905Z,10.57
2019-02-17T05:24:37.550Z,11.40
2019-02-17T05:27:09.226Z,11.60
2019-02-17T05:29:41.231Z,10.60
2019-02-17T05:32:13.067Z,11.70
2019-02-17T05:34:44.678Z,10.80
2019-02-17T05:37:16.382Z,11.23
2019-02-17T05:39:48.285Z,10.40
2019-02-17T05:42:20.092Z,10.43
2019-02-17T05:44:52.228Z,10.30
2019-02-17T05:47:24.251Z,11.20
2019-02-17T05:49:56.114Z,11.10
2019-02-17T05:52:27.829Z,10.17
2019-02-17T05:54:59.439Z,11.13
2019-02-17T05:57:31.235Z,10.80
2019-02-17T06:00:03.294Z,10.50
2019-02-17T06:02:35.107Z,10.83
2019-02-17T06:05:07.480Z,9.93
2019-02-17T06:07:39.119Z,11.07
2019-02-17T06:10:10.957Z,11.50
2019-02-17T06:12:43.370Z,11.43
2019-02-17T06:15:15.702Z,11.57
2019-02-17T06:17:47.361Z,12.07
2019-02-17T06:20:20.938Z,11.00
2019-02-17T06:22:54.340Z,11.17
2019-02-17T06:25:25.955Z,11.30
2019-02-17T06:27:57.546Z,11.20
2019-02-17T06:30:29.176Z,11.10
2019-02-17T06:33:01.142Z,10.30
2019-02-17T06:35:32.914Z,11.37
2019-02-17T06:38:04.662Z,12.30
2019-02-17T06:40:36.562Z,11.90
2019-02-17T06:43:08.221Z,11.43
2019-02-17T06:45:39.862Z,10.80
2019-02-17T06:48:11.627Z,10.47
2019-02-17T06:50:43.992Z,11.50
2019-02-17T06:53:16.528Z,11.30
2019-02-17T06:56:01.973Z,12.33
2019-02-17T06:58:33.631Z,11.03
2019-02-17T07:01:05.565Z,10.83
2019-02-17T07:03:37.180Z,11.37
2019-02-17T07:06:20.893Z,11.00
2019-02-17T07:08:52.608Z,11.80
2019-02-17T07:11:24.248Z,9.27
2019-02-17T07:13:56.002Z,11.10
2019-02-17T07:16:28.411Z,11.10
2019-02-17T07:19:00.183Z,12.23
2019-02-17T07:21:32.196Z,12.10
2019-02-17T07:24:05.691Z,12.77
2019-02-17T07:26:37.594Z,10.97
2019-02-17T07:29:09.326Z,13.03
2019-02-17T07:31:41.118Z,11.30
2019-02-17T07:34:13.071Z,11.50
2019-02-17T07:36:44.874Z,13.13
2019-02-17T07:39:17.600Z,12.60
2019-02-17T07:41:49.400Z,13.10
2019-02-17T07:44:21.284Z,11.80
2019-02-17T07:46:53.015Z,11.88
2019-02-17T07:49:26.198Z,14.00
2019-02-17T07:51:59.285Z,12.43
2019-02-17T07:54:30.905Z,13.03
2019-02-17T07:57:02.689Z,13.47
2019-02-17T07:59:34.545Z,13.13
2019-02-17T08:02:06.222Z,12.47
2019-02-17T08:04:37.870Z,13.50
2019-02-17T08:07:09.730Z,12.77
2019-02-17T08:09:41.459Z,12.80
2019-02-17T08:12:13.372Z,13.73
2019-02-17T08:14:45.039Z,13.70
2019-02-17T08:17:17.691Z,12.70
2019-02-17T08:19:49.400Z,14.33
2019-02-17T08:22:21.458Z,14.00
2019-02-17T08:24:54.209Z,13.57
2019-02-17T08:27:26.033Z,13.05
2019-02-17T08:29:57.673Z,13.33
2019-02-17T08:32:29.345Z,12.40
2019-02-17T08:35:02.336Z,12.50
2019-02-17T08:37:34.662Z,13.73
2019-02-17T08:40:07.227Z,14.07
2019-02-17T08:42:38.995Z,13.28
2019-02-17T08:45:11.442Z,11.80
2019-02-17T08:47:46.311Z,11.70
2019-02-17T08:50:21.454Z,10.80
2019-02-17T08:52:57.099Z,9.90
2019-02-17T08:55:29.150Z,11.00
2019-02-17T08:58:00.884Z,10.90
2019-02-17T09:00:32.664Z,9.70
2019-02-17T09:03:04.376Z,10.97
2019-02-17T09:05:43.808Z,9.33
2019-02-17T09:08:10.239Z,10.63
2019-02-17T09:10:42.230Z,10.60
2019-02-17T09:13:13.946Z,10.65
2019-02-17T09:15:45.881Z,9.70
2019-02-17T09:18:19.484Z,10.20
2019-02-17T09:20:51.192Z,9.27
2019-02-17T09:23:23.006Z,13.30
2019-02-17T09:25:54.857Z,12.33
2019-02-17T09:28:26.509Z,9.20
2019-02-17T09:30:58.217Z,11.57
2019-02-17T09:33:29.879Z,10.73
2019-02-17T09:36:01.641Z,11.97
2019-02-17T09:38:33.283Z,10.80
2019-02-17T09:41:05.478Z,10.43
2019-02-17T09:43:37.537Z,10.97
2019-02-17T09:46:09.263Z,11.80
2019-02-17T09:48:41.059Z,11.30
2019-02-17T09:51:12.810Z,10.90
2019-02-17T09:53:44.630Z,11.23
2019-02-17T09:56:16.589Z,11.70
2019-02-17T09:58:48.366Z,11.50
2019-02-17T10:01:20.222Z,16.77
2019-02-17T10:03:51.911Z,16.53
2019-02-17T10:06:23.832Z,11.70
2019-02-17T10:08:55.620Z,14.37
2019-02-17T10:11:27.428Z,13.00
2019-02-17T10:14:11.390Z,14.60
2019-02-17T10:16:45.916Z,13.28
2019-02-17T10:19:17.623Z,12.53
2019-02-17T10:21:49.325Z,11.50
2019-02-17T10:24:21.050Z,12.20
2019-02-17T10:26:52.841Z,11.63
2019-02-17T10:29:24.809Z,12.80
2019-02-17T10:31:56.524Z,11.80
2019-02-17T10:34:28.240Z,12.30
2019-02-17T10:36:59.989Z,12.88
2019-02-17T10:39:31.746Z,13.43
2019-02-17T10:42:03.883Z,12.00
2019-02-17T10:44:35.546Z,13.37
2019-02-17T10:47:07.518Z,13.90
2019-02-17T10:49:41.994Z,13.73
2019-02-17T10:52:13.830Z,14.47
2019-02-17T10:54:45.574Z,12.13
2019-02-17T10:57:17.618Z,12.33
2019-02-17T10:59:49.414Z,10.80
2019-02-17T11:02:21.169Z,14.83
2019-02-17T11:04:52.924Z,14.00
2019-02-17T11:07:24.623Z,11.23
2019-02-17T11:09:56.359Z,12.73
2019-02-17T11:12:28.342Z,13.23
2019-02-17T11:15:00.041Z,12.80
2019-02-17T11:17:32.579Z,12.87
2019-02-17T11:20:04.640Z,11.53
2019-02-17T11:22:36.350Z,12.70
2019-02-17T11:25:08.475Z,12.67
2019-02-17T11:27:40.671Z,11.10
2019-02-17T11:30:14.494Z,12.17
2019-02-17T11:32:46.311Z,10.90
2019-02-17T11:35:18.003Z,11.70
2019-02-17T11:37:49.697Z,11.90
2019-02-17T11:40:21.412Z,12.95
2019-02-17T11:42:53.169Z,10.77
2019-02-17T11:45:24.987Z,11.53
2019-02-17T11:47:56.683Z,11.73
2019-02-17T11:50:28.461Z,10.70
2019-02-17T11:53:00.251Z,12.73
2019-02-17T11:55:31.984Z,11.00
2019-02-17T11:58:03.658Z,11.90
2019-02-17T12:00:35.531Z,13.00
2019-02-17T12:03:08.460Z,11.63
2019-02-17T12:05:40.478Z,13.30
2019-02-17T12:08:12.725Z,13.10
2019-02-17T12:10:44.725Z,13.00
2019-02-17T12:13:16.457Z,13.00
2019-02-17T12:15:49.189Z,12.97
2019-02-17T12:18:21.141Z,12.37
2019-02-17T12:21:09.314Z,13.30
2019-02-17T12:23:44.138Z,13.37
2019-02-17T12:26:27.322Z,13.07
2019-02-17T12:29:07.327Z,11.77
2019-02-17T12:31:40.037Z,10.60
2019-02-17T12:34:11.782Z,11.37
2019-02-17T12:36:43.585Z,12.30
2019-02-17T12:39:16.263Z,11.60
2019-02-17T12:41:48.043Z,12.93
2019-02-17T12:44:19.772Z,11.57
2019-02-17T12:46:51.652Z,12.27
2019-02-17T12:49:23.360Z,12.70
2019-02-17T12:51:55.268Z,11.63
2019-02-17T12:54:29.418Z,11.97
2019-02-17T12:57:00.624Z,12.97
2019-02-17T12:59:32.754Z,12.07
2019-02-17T13:02:04.762Z,11.47
2019-02-17T13:04:36.562Z,12.50
2019-02-17T13:07:08.414Z,11.40
2019-02-17T13:09:40.258Z,12.60
2019-02-17T13:12:12.016Z,11.03
2019-02-17T13:14:44.955Z,11.77
2019-02-17T13:17:17.162Z,10.63
2019-02-17T13:19:49.063Z,11.47
2019-02-17T13:22:20.887Z,10.93
2019-02-17T13:24:52.607Z,10.10
2019-02-17T13:27:24.677Z,11.80
2019-02-17T13:29:56.405Z,10.60
2019-02-17T13:32:28.370Z,10.30
2019-02-17T13:35:00.103Z,11.00
2019-02-17T13:37:32.039Z,10.97
2019-02-17T13:40:04.025Z,10.47
2019-02-17T13:42:35.806Z,10.97
2019-02-17T13:45:08.896Z,10.77
2019-02-17T13:47:40.611Z,9.90
2019-02-17T13:50:13.782Z,9.63
2019-02-17T13:52:45.554Z,11.00
2019-02-17T13:55:17.257Z,9.17
2019-02-17T13:57:49.003Z,10.60
2019-02-17T14:00:20.940Z,9.87
2019-02-17T14:02:53.974Z,10.00
2019-02-17T14:05:25.883Z,10.07
2019-02-17T14:07:57.820Z,10.00
2019-02-17T14:10:29.506Z,9.80
2019-02-17T14:13:01.263Z,9.70
2019-02-17T14:15:32.370Z,9.53
2019-02-17T14:18:01.630Z,9.15
2019-02-17T14:20:34.592Z,9.20
2019-02-17T14:23:06.327Z,9.00
2019-02-17T14:25:38.005Z,9.40
2019-02-17T14:28:09.913Z,7.30
2019-02-17T14:30:41.632Z,7.27
2019-02-17T14:33:13.345Z,6.80
2019-02-17T14:35:45.667Z,6.58
2019-02-17T14:38:17.358Z,7.40
2019-02-17T14:40:49.089Z,6.33
2019-02-17T14:43:20.914Z,6.40
2019-02-17T14:45:52.595Z,7.77
2019-02-17T14:48:24.395Z,7.13
2019-02-17T14:50:56.442Z,6.97
2019-02-17T14:53:28.184Z,6.70
2019-02-17T14:56:00.376Z,5.90
2019-02-17T14:58:32.153Z,7.13
2019-02-17T15:01:04.439Z,6.60
2019-02-17T15:03:36.086Z,5.93
2019-02-17T15:06:07.951Z,6.00
2019-02-17T15:08:39.611Z,6.30
2019-02-17T15:11:11.320Z,6.77
2019-02-17T15:13:43.041Z,7.07
2019-02-17T15:16:15.084Z,6.47
2019-02-17T15:18:47.489Z,6.77
2019-02-17T15:21:19.453Z,9.50
2019-02-17T15:23:51.691Z,9.67
2019-02-17T15:26:23.408Z,7.77
2019-02-17T15:28:55.165Z,7.40
2019-02-17T15:31:26.984Z,7.10
2019-02-17T15:33:59.066Z,8.00
2019-02-17T15:36:32.565Z,7.17
2019-02-17T15:39:05.925Z,6.75
2019-02-17T15:41:37.611Z,6.03
2019-02-17T15:44:09.429Z,6.77
2019-02-17T15:46:41.238Z,7.57
2019-02-17T15:49:12.969Z,7.60
2019-02-17T15:51:45.386Z,8.00
2019-02-17T15:54:18.355Z,7.93
2019-02-17T15:56:50.100Z,9.40
2019-02-17T15:59:21.834Z,8.20
2019-02-17T16:01:53.630Z,8.47
2019-02-17T16:04:28.554Z,9.67
2019-02-17T16:06:59.131Z,8.80
2019-02-17T16:09:31.096Z,7.47
2019-02-17T16:12:03.238Z,7.25
2019-02-17T16:14:35.276Z,7.53
2019-02-17T16:17:07.791Z,7.20
2019-02-17T16:19:39.566Z,9.63
2019-02-17T16:22:11.678Z,8.30
2019-02-17T16:24:43.541Z,9.35
2019-02-17T16:27:15.336Z,12.07
2019-02-17T16:29:47.140Z,10.20
2019-02-17T16:32:19.241Z,9.47
2019-02-17T16:34:51.025Z,9.50
2019-02-17T16:37:24.611Z,10.03
2019-02-17T16:39:56.436Z,9.30
2019-02-17T16:42:28.252Z,10.30
2019-02-17T16:45:00.815Z,10.18
2019-02-17T16:47:32.768Z,10.30
2019-02-17T16:50:05.159Z,8.10
2019-02-17T16:52:38.728Z,9.37
2019-02-17T16:55:11.926Z,11.07
2019-02-17T16:57:44.810Z,9.63
2019-02-17T17:00:24.443Z,9.20
2019-02-17T17:02:56.601Z,11.10
2019-02-17T17:05:28.665Z,8.30
2019-02-17T17:08:01.128Z,8.77
2019-02-17T17:10:33.493Z,7.30
2019-02-17T17:13:05.227Z,11.00
2019-02-17T17:15:37.493Z,12.97
2019-02-17T17:18:10.650Z,13.77
2019-02-17T17:20:42.610Z,10.87
2019-02-17T17:23:14.365Z,10.27
2019-02-17T17:25:46.207Z,8.80
2019-02-17T17:28:18.117Z,8.17
2019-02-17T17:30:49.961Z,9.33
2019-02-17T17:33:21.918Z,9.20
2019-02-17T17:35:53.639Z,6.73
2019-02-17T17:38:25.423Z,7.00
2019-02-17T17:40:57.227Z,6.73
2019-02-17T17:43:29.308Z,7.40
2019-02-17T17:46:01.104Z,6.63
2019-02-17T17:48:32.881Z,6.87
2019-02-17T17:51:04.639Z,6.80
2019-02-17T17:53:36.394Z,7.67
2019-02-17T17:56:08.197Z,7.97
2019-02-17T17:58:40.258Z,7.87
2019-02-17T18:01:13.612Z,6.10
2019-02-17T18:03:45.738Z,6.90
2019-02-17T18:06:17.557Z,6.90
2019-02-17T18:08:49.524Z,6.23
2019-02-17T18:11:21.321Z,5.73
2019-02-17T18:13:53.361Z,6.70
2019-02-17T18:16:25.579Z,8.60
2019-02-17T18:18:57.526Z,6.23
2019-02-17T18:21:29.398Z,6.20
2019-02-17T18:24:01.371Z,6.17
2019-02-17T18:26:33.738Z,7.10
2019-02-17T18:29:05.824Z,8.77
2019-02-17T18:31:37.702Z,10.17
2019-02-17T18:34:10.661Z,8.20
2019-02-17T18:36:42.460Z,6.77
2019-02-17T18:39:14.825Z,6.60
2019-02-17T18:41:46.783Z,6.80
2019-02-17T18:44:19.090Z,5.75
2019-02-17T18:46:50.946Z,6.50
2019-02-17T18:49:22.800Z,5.60
2019-02-17T18:51:54.667Z,5.83
2019-02-17T18:54:26.550Z,6.20
2019-02-17T18:57:07.823Z,5.67
2019-02-17T18:59:32.578Z,6.50
2019-02-17T19:02:04.541Z,5.83
2019-02-17T19:04:36.504Z,6.00
2019-02-17T19:07:08.667Z,5.20
2019-02-17T19:09:41.709Z,5.03
2019-02-17T19:12:13.530Z,6.40
2019-02-17T19:14:46.052Z,6.17
2019-02-17T19:17:18.082Z,5.87
2019-02-17T19:19:50.014Z,6.12
2019-02-17T19:22:21.944Z,6.05
2019-02-17T19:24:54.070Z,5.90
2019-02-17T19:27:25.835Z,7.20
2019-02-17T19:29:57.802Z,7.03
2019-02-17T19:32:29.674Z,7.93
2019-02-17T19:35:01.523Z,7.43
2019-02-17T19:37:33.419Z,10.00
2019-02-17T19:40:05.910Z,14.30
2019-02-17T19:42:38.995Z,15.27
2019-02-17T19:45:12.207Z,13.23
2019-02-17T19:47:44.193Z,12.03
2019-02-17T19:50:15.959Z,12.50
2019-02-17T19:52:47.912Z,9.70
2019-02-17T19:55:20.930Z,9.20
2019-02-17T19:57:53.178Z,7.40
2019-02-17T20:00:27.043Z,5.70
2019-02-17T20:03:18.541Z,5.93
2019-02-17T20:05:56.278Z,6.12
2019-02-17T20:08:28.202Z,9.58
2019-02-17T20:11:00.167Z,9.60
2019-02-17T20:13:32.510Z,11.10
2019-02-17T20:16:05.023Z,11.07
2019-02-17T20:18:36.874Z,11.80
2019-02-17T20:21:08.650Z,15.87
2019-02-17T20:23:42.132Z,14.80
2019-02-17T20:26:14.123Z,12.83
2019-02-17T20:28:46.244Z,9.63
2019-02-17T20:31:18.166Z,8.80
2019-02-17T20:33:51.479Z,9.17
2019-02-17T20:36:25.482Z,10.73
2019-02-17T20:38:57.509Z,10.13
2019-02-17T20:41:29.355Z,12.63
2019-02-17T20:44:01.262Z,14.63
2019-02-17T20:46:34.341Z,15.25
2019-02-17T20:49:06.375Z,10.90
2019-02-17T20:51:38.265Z,14.73
2019-02-17T20:54:10.276Z,14.33
2019-02-17T20:56:42.057Z,12.45
2019-02-17T20:59:13.808Z,11.70
2019-02-17T21:01:46.036Z,12.13
2019-02-17T21:04:17.989Z,10.30
2019-02-17T21:06:51.172Z,10.13
2019-02-17T21:09:23.645Z,9.80
2019-02-17T21:11:55.473Z,9.53
2019-02-17T21:14:27.521Z,10.87
2019-02-17T21:16:59.712Z,14.00
2019-02-17T21:19:31.917Z,13.80
2019-02-17T21:22:03.729Z,14.50
2019-02-17T21:24:35.494Z,15.17
2019-02-17T21:27:07.240Z,15.00
2019-02-17T21:29:40.091Z,13.17
2019-02-17T21:32:11.860Z,13.10
2019-02-17T21:34:43.905Z,11.33
2019-02-17T21:37:15.951Z,10.10
2019-02-17T21:39:48.010Z,8.93
2019-02-17T21:42:19.810Z,9.47
2019-02-17T21:44:52.941Z,8.60
2019-02-17T21:47:24.619Z,8.90
2019-02-17T21:49:56.515Z,9.00
2019-02-17T21:52:28.225Z,8.30
2019-02-17T21:55:00.219Z,8.07
2019-02-17T21:57:32.084Z,8.80
2019-02-17T22:00:04.029Z,7.12
2019-02-17T22:02:35.719Z,8.83
2019-02-17T22:05:07.744Z,9.20
2019-02-17T22:07:40.204Z,9.03
2019-02-17T22:10:14.147Z,7.53
2019-02-17T22:12:46.295Z,8.20
2019-02-17T22:15:18.345Z,9.90
2019-02-17T22:17:50.119Z,11.07
2019-02-17T22:20:21.959Z,8.47
2019-02-17T22:22:53.612Z,8.50
2019-02-17T22:25:29.087Z,8.97
2019-02-17T22:28:00.891Z,9.00
2019-02-17T22:30:32.678Z,9.40
2019-02-17T22:33:04.358Z,8.60
2019-02-17T22:35:35.944Z,8.23
2019-02-17T22:38:07.792Z,8.87
2019-02-17T22:40:39.519Z,8.87
2019-02-17T22:43:11.199Z,8.63
2019-02-17T22:45:44.123Z,8.70
2019-02-17T22:48:15.900Z,8.37
2019-02-17T22:50:47.873Z,8.07
2019-02-17T22:53:19.757Z,8.20
2019-02-17T22:55:51.420Z,8.37
2019-02-17T22:58:23.146Z,9.33
2019-02-17T23:01:05.677Z,8.47
2019-02-17T23:03:37.444Z,8.93
2019-02-17T23:06:09.111Z,10.40
2019-02-17T23:08:40.952Z,9.37
2019-02-17T23:11:12.590Z,8.80
2019-02-17T23:13:44.375Z,9.40
2019-02-17T23:16:16.452Z,9.30
2019-02-17T23:18:48.165Z,9.27
2019-02-17T23:21:19.822Z,9.80
2019-02-17T23:23:51.820Z,8.87
2019-02-17T23:26:23.466Z,9.87
2019-02-17T23:28:55.147Z,8.03
2019-02-17T23:31:26.968Z,7.60
2019-02-17T23:33:58.626Z,7.47
2019-02-17T23:36:30.557Z,7.35
2019-02-17T23:39:03.254Z,7.20
2019-02-17T23:41:34.859Z,6.80
2019-02-17T23:44:06.508Z,8.10
2019-02-17T23:46:38.137Z,8.37
2019-02-17T23:49:11.261Z,8.67
2019-02-17T23:51:42.873Z,9.27
2019-02-17T23:54:14.661Z,9.93
2019-02-17T23:56:46.488Z,7.75
2019-02-17T23:59:18.161Z,7.70
